Cove Spring, Texas
Current Conditions -  °F | °C
As of 10:55 PM on Saturday 25 Oct 2014 (Local Time) from KJSO Reporting Station
Clear Clear  
Wind Chill: 72°   Ceiling: Unl
Heat Index: 72°   Visibility: 10mi
Dew Point: 63°   Wind: 5mph
Humidity: 74%   Direction: 190°S
Pressure: 30.11"   Gusts: NA
Location:  31.9649°N, 95.3036°W
Report Text: KJSO 260355Z AUTO 19004KT 10SM CLR 22/17 A3011 RMK AO2 T02200172
Loading
Personal Weather Stations






























Interactive Weather Map
Tropical Storm Tracking
New forecast layout! Learn more

10-Day Weather Forecast

Advertisements
Track Severe Weather on mobile